sensor_id;sensor_type;location;lat;lon;timestamp;P1;durP1;ratioP1;P2;durP2;ratioP2
22332;SDS011;11334;36.986;-121.936;2022-09-09T00:03:44;34.97;;;11.70;;
22332;SDS011;11334;36.986;-121.936;2022-09-09T00:06:23;39.00;;;12.18;;
22332;SDS011;11334;36.986;-121.936;2022-09-09T00:11:40;30.23;;;10.25;;
22332;SDS011;11334;36.986;-121.936;2022-09-09T00:14:20;29.40;;;10.20;;
22332;SDS011;11334;36.986;-121.936;2022-09-09T00:17:01;30.58;;;10.75;;
22332;SDS011;11334;36.986;-121.936;2022-09-09T00:19:40;28.40;;;10.07;;
22332;SDS011;11334;36.986;-121.936;2022-09-09T00:22:28;28.30;;;10.63;;
22332;SDS011;11334;36.986;-121.936;2022-09-09T00:25:02;26.48;;;10.27;;
22332;SDS011;11334;36.986;-121.936;2022-09-09T00:27:49;26.05;;;10.05;;
22332;SDS011;11334;36.986;-121.936;2022-09-09T00:30:34;30.13;;;10.48;;
22332;SDS011;11334;36.986;-121.936;2022-09-09T00:33:12;23.67;;;10.30;;
22332;SDS011;11334;36.986;-121.936;2022-09-09T00:35:58;25.52;;;11.20;;
22332;SDS011;11334;36.986;-121.936;2022-09-09T00:44:34;25.05;;;9.93;;
22332;SDS011;11334;36.986;-121.936;2022-09-09T00:50:47;24.25;;;10.00;;
22332;SDS011;11334;36.986;-121.936;2022-09-09T00:58:25;24.75;;;9.38;;
22332;SDS011;11334;36.986;-121.936;2022-09-09T01:06:32;25.23;;;10.00;;
22332;SDS011;11334;36.986;-121.936;2022-09-09T01:12:28;22.25;;;10.10;;
22332;SDS011;11334;36.986;-121.936;2022-09-09T01:15:10;25.20;;;10.07;;
22332;SDS011;11334;36.986;-121.936;2022-09-09T01:20:26;25.10;;;10.57;;
22332;SDS011;11334;36.986;-121.936;2022-09-09T01:28:40;31.88;;;11.40;;
22332;SDS011;11334;36.986;-121.936;2022-09-09T01:31:11;32.25;;;11.20;;
22332;SDS011;11334;36.986;-121.936;2022-09-09T01:33:41;26.00;;;10.25;;
22332;SDS011;11334;36.986;-121.936;2022-09-09T01:36:08;32.35;;;11.73;;
22332;SDS011;11334;36.986;-121.936;2022-09-09T01:38:55;34.40;;;12.75;;
22332;SDS011;11334;36.986;-121.936;2022-09-09T01:41:21;37.28;;;12.65;;
22332;SDS011;11334;36.986;-121.936;2022-09-09T01:43:47;34.90;;;12.57;;
22332;SDS011;11334;36.986;-121.936;2022-09-09T01:46:17;33.90;;;12.30;;
22332;SDS011;11334;36.986;-121.936;2022-09-09T01:48:46;38.25;;;11.68;;
22332;SDS011;11334;36.986;-121.936;2022-09-09T01:51:12;43.20;;;12.25;;
22332;SDS011;11334;36.986;-121.936;2022-09-09T01:53:39;33.25;;;11.98;;
22332;SDS011;11334;36.986;-121.936;2022-09-09T02:04:38;41.15;;;12.82;;
22332;SDS011;11334;36.986;-121.936;2022-09-09T02:07:37;36.00;;;13.10;;
22332;SDS011;11334;36.986;-121.936;2022-09-09T02:10:10;39.42;;;12.63;;
22332;SDS011;11334;36.986;-121.936;2022-09-09T02:12:43;39.25;;;12.93;;
22332;SDS011;11334;36.986;-121.936;2022-09-09T02:15:22;44.67;;;13.05;;
22332;SDS011;11334;36.986;-121.936;2022-09-09T02:17:56;41.60;;;13.00;;
22332;SDS011;11334;36.986;-121.936;2022-09-09T02:20:27;40.65;;;12.68;;
22332;SDS011;11334;36.986;-121.936;2022-09-09T02:22:57;43.28;;;13.68;;
22332;SDS011;11334;36.986;-121.936;2022-09-09T02:25:25;45.05;;;12.55;;
22332;SDS011;11334;36.986;-121.936;2022-09-09T02:27:54;44.63;;;13.00;;
22332;SDS011;11334;36.986;-121.936;2022-09-09T02:30:24;47.60;;;14.45;;
22332;SDS011;11334;36.986;-121.936;2022-09-09T02:32:50;42.10;;;13.15;;
22332;SDS011;11334;36.986;-121.936;2022-09-09T02:35:22;53.03;;;14.18;;
22332;SDS011;11334;36.986;-121.936;2022-09-09T02:37:52;46.70;;;13.38;;
22332;SDS011;11334;36.986;-121.936;2022-09-09T02:40:22;51.17;;;14.13;;
22332;SDS011;11334;36.986;-121.936;2022-09-09T02:42:48;42.78;;;13.68;;
22332;SDS011;11334;36.986;-121.936;2022-09-09T02:45:16;43.78;;;13.93;;
22332;SDS011;11334;36.986;-121.936;2022-09-09T02:50:50;39.20;;;13.18;;
22332;SDS011;11334;36.986;-121.936;2022-09-09T02:53:23;49.40;;;13.75;;
22332;SDS011;11334;36.986;-121.936;2022-09-09T02:56:05;45.55;;;14.05;;
22332;SDS011;11334;36.986;-121.936;2022-09-09T02:58:40;48.60;;;15.13;;
22332;SDS011;11334;36.986;-121.936;2022-09-09T03:01:07;51.70;;;14.43;;
22332;SDS011;11334;36.986;-121.936;2022-09-09T03:03:34;50.28;;;13.85;;
22332;SDS011;11334;36.986;-121.936;2022-09-09T03:06:01;46.42;;;13.40;;
22332;SDS011;11334;36.986;-121.936;2022-09-09T03:08:27;49.60;;;15.45;;
22332;SDS011;11334;36.986;-121.936;2022-09-09T03:10:57;51.15;;;14.95;;
22332;SDS011;11334;36.986;-121.936;2022-09-09T03:13:26;46.25;;;13.70;;
22332;SDS011;11334;36.986;-121.936;2022-09-09T03:15:53;51.45;;;15.65;;
22332;SDS011;11334;36.986;-121.936;2022-09-09T03:18:19;53.70;;;15.05;;
22332;SDS011;11334;36.986;-121.936;2022-09-09T03:20:45;52.72;;;15.27;;
22332;SDS011;11334;36.986;-121.936;2022-09-09T03:23:16;52.42;;;15.75;;
22332;SDS011;11334;36.986;-121.936;2022-09-09T03:25:49;49.85;;;14.55;;
22332;SDS011;11334;36.986;-121.936;2022-09-09T03:28:16;51.50;;;14.52;;
22332;SDS011;11334;36.986;-121.936;2022-09-09T03:30:42;51.90;;;15.13;;
22332;SDS011;11334;36.986;-121.936;2022-09-09T03:33:09;54.55;;;14.63;;
22332;SDS011;11334;36.986;-121.936;2022-09-09T03:35:35;52.33;;;15.43;;
22332;SDS011;11334;36.986;-121.936;2022-09-09T03:38:01;47.17;;;13.80;;
22332;SDS011;11334;36.986;-121.936;2022-09-09T03:40:27;53.08;;;15.05;;
22332;SDS011;11334;36.986;-121.936;2022-09-09T03:42:54;51.13;;;15.57;;
22332;SDS011;11334;36.986;-121.936;2022-09-09T03:45:20;50.05;;;14.98;;
22332;SDS011;11334;36.986;-121.936;2022-09-09T03:47:46;54.30;;;15.23;;
22332;SDS011;11334;36.986;-121.936;2022-09-09T03:50:12;49.88;;;14.57;;
22332;SDS011;11334;36.986;-121.936;2022-09-09T03:52:39;55.05;;;14.45;;
22332;SDS011;11334;36.986;-121.936;2022-09-09T03:55:07;52.15;;;14.68;;
22332;SDS011;11334;36.986;-121.936;2022-09-09T03:57:34;53.78;;;14.68;;
22332;SDS011;11334;36.986;-121.936;2022-09-09T04:00:02;51.80;;;15.57;;
22332;SDS011;11334;36.986;-121.936;2022-09-09T04:02:30;51.28;;;14.93;;
22332;SDS011;11334;36.986;-121.936;2022-09-09T04:04:56;51.28;;;15.20;;
22332;SDS011;11334;36.986;-121.936;2022-09-09T04:07:22;48.88;;;15.90;;
22332;SDS011;11334;36.986;-121.936;2022-09-09T04:09:48;56.75;;;15.73;;
22332;SDS011;11334;36.986;-121.936;2022-09-09T04:12:15;52.40;;;15.05;;
22332;SDS011;11334;36.986;-121.936;2022-09-09T04:14:41;51.42;;;14.93;;
22332;SDS011;11334;36.986;-121.936;2022-09-09T04:17:08;60.42;;;16.08;;
22332;SDS011;11334;36.986;-121.936;2022-09-09T04:19:34;52.08;;;15.85;;
22332;SDS011;11334;36.986;-121.936;2022-09-09T04:22:00;55.90;;;16.17;;
22332;SDS011;11334;36.986;-121.936;2022-09-09T04:24:26;65.50;;;15.90;;
22332;SDS011;11334;36.986;-121.936;2022-09-09T04:26:54;49.78;;;14.63;;
22332;SDS011;11334;36.986;-121.936;2022-09-09T04:29:20;50.75;;;14.88;;
22332;SDS011;11334;36.986;-121.936;2022-09-09T04:31:47;55.25;;;15.13;;
22332;SDS011;11334;36.986;-121.936;2022-09-09T04:34:13;50.05;;;15.88;;
22332;SDS011;11334;36.986;-121.936;2022-09-09T04:36:39;56.20;;;15.15;;
22332;SDS011;11334;36.986;-121.936;2022-09-09T04:39:05;60.30;;;15.32;;
22332;SDS011;11334;36.986;-121.936;2022-09-09T04:41:32;56.67;;;16.23;;
22332;SDS011;11334;36.986;-121.936;2022-09-09T04:43:58;64.85;;;16.30;;
22332;SDS011;11334;36.986;-121.936;2022-09-09T04:46:25;54.40;;;15.70;;
22332;SDS011;11334;36.986;-121.936;2022-09-09T04:48:52;52.08;;;15.02;;
22332;SDS011;11334;36.986;-121.936;2022-09-09T04:51:19;51.97;;;15.85;;
22332;SDS011;11334;36.986;-121.936;2022-09-09T04:53:45;55.78;;;15.65;;
22332;SDS011;11334;36.986;-121.936;2022-09-09T04:56:16;61.42;;;16.63;;
22332;SDS011;11334;36.986;-121.936;2022-09-09T04:58:43;48.83;;;13.90;;
22332;SDS011;11334;36.986;-121.936;2022-09-09T05:01:11;47.88;;;15.90;;
22332;SDS011;11334;36.986;-121.936;2022-09-09T05:03:46;51.00;;;14.05;;
22332;SDS011;11334;36.986;-121.936;2022-09-09T05:06:17;55.03;;;15.20;;
22332;SDS011;11334;36.986;-121.936;2022-09-09T05:08:44;55.97;;;16.23;;
22332;SDS011;11334;36.986;-121.936;2022-09-09T05:11:15;55.83;;;14.80;;
22332;SDS011;11334;36.986;-121.936;2022-09-09T05:13:52;58.70;;;15.95;;
22332;SDS011;11334;36.986;-121.936;2022-09-09T05:16:19;61.72;;;16.42;;
22332;SDS011;11334;36.986;-121.936;2022-09-09T05:18:46;56.95;;;16.20;;
22332;SDS011;11334;36.986;-121.936;2022-09-09T05:21:14;51.83;;;14.52;;
22332;SDS011;11334;36.986;-121.936;2022-09-09T05:23:41;54.30;;;14.98;;
22332;SDS011;11334;36.986;-121.936;2022-09-09T05:26:12;54.47;;;15.75;;
22332;SDS011;11334;36.986;-121.936;2022-09-09T05:28:40;52.20;;;15.10;;
22332;SDS011;11334;36.986;-121.936;2022-09-09T05:31:07;49.40;;;14.77;;
22332;SDS011;11334;36.986;-121.936;2022-09-09T05:33:38;45.40;;;15.20;;
22332;SDS011;11334;36.986;-121.936;2022-09-09T05:36:10;64.05;;;16.05;;
22332;SDS011;11334;36.986;-121.936;2022-09-09T05:38:41;55.78;;;15.32;;
22332;SDS011;11334;36.986;-121.936;2022-09-09T05:41:08;53.40;;;15.48;;
22332;SDS011;11334;36.986;-121.936;2022-09-09T05:43:41;49.63;;;14.65;;
22332;SDS011;11334;36.986;-121.936;2022-09-09T05:46:10;50.60;;;14.93;;
22332;SDS011;11334;36.986;-121.936;2022-09-09T05:48:41;56.92;;;15.65;;
22332;SDS011;11334;36.986;-121.936;2022-09-09T05:51:12;56.28;;;15.27;;
22332;SDS011;11334;36.986;-121.936;2022-09-09T05:53:43;52.30;;;14.80;;
22332;SDS011;11334;36.986;-121.936;2022-09-09T05:56:11;51.65;;;15.13;;
22332;SDS011;11334;36.986;-121.936;2022-09-09T05:58:43;56.40;;;14.75;;
22332;SDS011;11334;36.986;-121.936;2022-09-09T06:01:13;56.00;;;15.25;;
22332;SDS011;11334;36.986;-121.936;2022-09-09T06:03:42;55.28;;;15.23;;
22332;SDS011;11334;36.986;-121.936;2022-09-09T06:06:10;46.45;;;14.70;;
22332;SDS011;11334;36.986;-121.936;2022-09-09T06:08:39;51.83;;;14.70;;
22332;SDS011;11334;36.986;-121.936;2022-09-09T06:11:10;48.53;;;14.48;;
22332;SDS011;11334;36.986;-121.936;2022-09-09T06:13:39;45.15;;;14.35;;
22332;SDS011;11334;36.986;-121.936;2022-09-09T06:16:06;47.35;;;14.75;;
22332;SDS011;11334;36.986;-121.936;2022-09-09T06:18:37;45.67;;;14.15;;
22332;SDS011;11334;36.986;-121.936;2022-09-09T06:21:05;52.28;;;14.40;;
22332;SDS011;11334;36.986;-121.936;2022-09-09T06:23:33;65.03;;;16.15;;
22332;SDS011;11334;36.986;-121.936;2022-09-09T06:26:12;57.83;;;16.75;;
22332;SDS011;11334;36.986;-121.936;2022-09-09T06:28:44;55.55;;;15.80;;
22332;SDS011;11334;36.986;-121.936;2022-09-09T06:31:11;49.80;;;14.05;;
22332;SDS011;11334;36.986;-121.936;2022-09-09T06:33:39;48.17;;;14.93;;
22332;SDS011;11334;36.986;-121.936;2022-09-09T06:36:07;46.85;;;14.13;;
22332;SDS011;11334;36.986;-121.936;2022-09-09T06:38:38;42.25;;;13.13;;
22332;SDS011;11334;36.986;-121.936;2022-09-09T06:41:04;43.95;;;13.68;;
22332;SDS011;11334;36.986;-121.936;2022-09-09T06:43:31;43.25;;;13.00;;
22332;SDS011;11334;36.986;-121.936;2022-09-09T06:46:01;51.92;;;14.88;;
22332;SDS011;11334;36.986;-121.936;2022-09-09T06:48:29;46.13;;;14.07;;
22332;SDS011;11334;36.986;-121.936;2022-09-09T06:51:09;50.42;;;14.73;;
22332;SDS011;11334;36.986;-121.936;2022-09-09T06:53:37;42.42;;;13.45;;
22332;SDS011;11334;36.986;-121.936;2022-09-09T06:58:37;41.50;;;13.32;;
22332;SDS011;11334;36.986;-121.936;2022-09-09T07:01:10;48.35;;;13.50;;
22332;SDS011;11334;36.986;-121.936;2022-09-09T07:03:41;47.38;;;13.80;;
22332;SDS011;11334;36.986;-121.936;2022-09-09T07:06:17;41.92;;;13.18;;
22332;SDS011;11334;36.986;-121.936;2022-09-09T07:08:54;35.60;;;13.38;;
22332;SDS011;11334;36.986;-121.936;2022-09-09T07:11:24;50.83;;;13.90;;
22332;SDS011;11334;36.986;-121.936;2022-09-09T07:13:56;48.85;;;14.20;;
22332;SDS011;11334;36.986;-121.936;2022-09-09T07:16:24;44.05;;;12.75;;
22332;SDS011;11334;36.986;-121.936;2022-09-09T07:18:52;43.95;;;14.27;;
22332;SDS011;11334;36.986;-121.936;2022-09-09T07:21:23;44.47;;;13.20;;
22332;SDS011;11334;36.986;-121.936;2022-09-09T07:23:51;47.28;;;14.23;;
22332;SDS011;11334;36.986;-121.936;2022-09-09T07:26:19;43.08;;;12.73;;
22332;SDS011;11334;36.986;-121.936;2022-09-09T07:28:47;41.30;;;13.98;;
22332;SDS011;11334;36.986;-121.936;2022-09-09T07:31:15;36.95;;;13.23;;
22332;SDS011;11334;36.986;-121.936;2022-09-09T07:33:49;37.75;;;12.30;;
22332;SDS011;11334;36.986;-121.936;2022-09-09T07:36:20;40.40;;;13.00;;
22332;SDS011;11334;36.986;-121.936;2022-09-09T07:38:52;44.75;;;12.48;;
22332;SDS011;11334;36.986;-121.936;2022-09-09T07:41:24;42.58;;;13.10;;
22332;SDS011;11334;36.986;-121.936;2022-09-09T07:43:55;45.22;;;12.88;;
22332;SDS011;11334;36.986;-121.936;2022-09-09T07:46:25;39.83;;;12.27;;
22332;SDS011;11334;36.986;-121.936;2022-09-09T07:48:52;46.97;;;13.48;;
22332;SDS011;11334;36.986;-121.936;2022-09-09T07:51:22;43.25;;;12.23;;
22332;SDS011;11334;36.986;-121.936;2022-09-09T07:54:09;37.53;;;12.38;;
22332;SDS011;11334;36.986;-121.936;2022-09-09T07:56:38;36.47;;;11.63;;
22332;SDS011;11334;36.986;-121.936;2022-09-09T07:59:05;43.58;;;12.70;;
22332;SDS011;11334;36.986;-121.936;2022-09-09T08:01:32;37.75;;;12.13;;
22332;SDS011;11334;36.986;-121.936;2022-09-09T08:04:03;39.60;;;12.73;;
22332;SDS011;11334;36.986;-121.936;2022-09-09T08:06:40;38.25;;;12.65;;
22332;SDS011;11334;36.986;-121.936;2022-09-09T08:09:09;44.75;;;13.25;;
22332;SDS011;11334;36.986;-121.936;2022-09-09T08:11:35;36.15;;;11.68;;
22332;SDS011;11334;36.986;-121.936;2022-09-09T08:14:03;45.80;;;12.02;;
22332;SDS011;11334;36.986;-121.936;2022-09-09T08:16:31;42.53;;;12.80;;
22332;SDS011;11334;36.986;-121.936;2022-09-09T08:18:58;40.00;;;11.68;;
22332;SDS011;11334;36.986;-121.936;2022-09-09T08:21:26;34.53;;;11.93;;
22332;SDS011;11334;36.986;-121.936;2022-09-09T08:23:55;33.72;;;11.57;;
22332;SDS011;11334;36.986;-121.936;2022-09-09T08:26:23;36.70;;;11.30;;
22332;SDS011;11334;36.986;-121.936;2022-09-09T08:28:53;37.50;;;11.65;;
22332;SDS011;11334;36.986;-121.936;2022-09-09T08:31:23;40.35;;;13.05;;
22332;SDS011;11334;36.986;-121.936;2022-09-09T08:33:55;42.83;;;13.07;;
22332;SDS011;11334;36.986;-121.936;2022-09-09T08:36:25;32.85;;;12.05;;
22332;SDS011;11334;36.986;-121.936;2022-09-09T08:38:54;35.88;;;11.73;;
22332;SDS011;11334;36.986;-121.936;2022-09-09T08:41:43;39.55;;;12.30;;
22332;SDS011;11334;36.986;-121.936;2022-09-09T08:52:18;37.35;;;12.55;;
22332;SDS011;11334;36.986;-121.936;2022-09-09T08:54:56;36.85;;;13.48;;
22332;SDS011;11334;36.986;-121.936;2022-09-09T08:57:35;36.42;;;11.15;;
22332;SDS011;11334;36.986;-121.936;2022-09-09T09:00:02;35.17;;;11.70;;
22332;SDS011;11334;36.986;-121.936;2022-09-09T09:07:50;35.35;;;10.98;;
22332;SDS011;11334;36.986;-121.936;2022-09-09T09:10:36;39.85;;;12.10;;
22332;SDS011;11334;36.986;-121.936;2022-09-09T09:15:52;32.53;;;10.90;;
22332;SDS011;11334;36.986;-121.936;2022-09-09T09:18:24;36.17;;;12.70;;
22332;SDS011;11334;36.986;-121.936;2022-09-09T09:20:53;33.53;;;11.52;;
22332;SDS011;11334;36.986;-121.936;2022-09-09T09:23:35;36.33;;;11.63;;
22332;SDS011;11334;36.986;-121.936;2022-09-09T09:26:09;38.10;;;11.95;;
22332;SDS011;11334;36.986;-121.936;2022-09-09T09:28:38;33.70;;;10.82;;
22332;SDS011;11334;36.986;-121.936;2022-09-09T09:31:08;30.35;;;10.77;;
22332;SDS011;11334;36.986;-121.936;2022-09-09T09:33:45;37.38;;;11.80;;
22332;SDS011;11334;36.986;-121.936;2022-09-09T09:36:18;43.28;;;12.20;;
22332;SDS011;11334;36.986;-121.936;2022-09-09T09:39:04;41.10;;;11.68;;
22332;SDS011;11334;36.986;-121.936;2022-09-09T09:44:04;38.85;;;11.57;;
22332;SDS011;11334;36.986;-121.936;2022-09-09T09:46:32;32.00;;;11.60;;
22332;SDS011;11334;36.986;-121.936;2022-09-09T09:48:59;33.80;;;11.25;;
22332;SDS011;11334;36.986;-121.936;2022-09-09T09:51:32;31.70;;;10.75;;
22332;SDS011;11334;36.986;-121.936;2022-09-09T09:54:23;28.58;;;10.65;;
22332;SDS011;11334;36.986;-121.936;2022-09-09T09:57:08;30.73;;;10.65;;
22332;SDS011;11334;36.986;-121.936;2022-09-09T09:59:38;35.65;;;11.20;;
22332;SDS011;11334;36.986;-121.936;2022-09-09T10:04:40;32.35;;;10.13;;
22332;SDS011;11334;36.986;-121.936;2022-09-09T10:07:15;33.95;;;11.40;;
22332;SDS011;11334;36.986;-121.936;2022-09-09T10:09:56;35.35;;;11.30;;
22332;SDS011;11334;36.986;-121.936;2022-09-09T10:23:29;34.08;;;11.05;;
22332;SDS011;11334;36.986;-121.936;2022-09-09T10:29:30;34.42;;;11.38;;
22332;SDS011;11334;36.986;-121.936;2022-09-09T10:35:09;34.92;;;11.18;;
22332;SDS011;11334;36.986;-121.936;2022-09-09T10:38:08;37.10;;;12.00;;
22332;SDS011;11334;36.986;-121.936;2022-09-09T10:40:43;27.40;;;10.93;;
22332;SDS011;11334;36.986;-121.936;2022-09-09T10:43:20;34.95;;;10.70;;
22332;SDS011;11334;36.986;-121.936;2022-09-09T10:56:40;32.75;;;10.20;;
22332;SDS011;11334;36.986;-121.936;2022-09-09T10:59:15;35.22;;;11.75;;
22332;SDS011;11334;36.986;-121.936;2022-09-09T11:01:47;30.25;;;11.43;;
22332;SDS011;11334;36.986;-121.936;2022-09-09T11:05:14;32.25;;;10.90;;
22332;SDS011;11334;36.986;-121.936;2022-09-09T11:07:42;31.08;;;10.30;;
22332;SDS011;11334;36.986;-121.936;2022-09-09T11:14:05;33.05;;;10.95;;
22332;SDS011;11334;36.986;-121.936;2022-09-09T11:21:45;40.67;;;11.15;;
22332;SDS011;11334;36.986;-121.936;2022-09-09T11:26:51;33.85;;;10.60;;
22332;SDS011;11334;36.986;-121.936;2022-09-09T11:32:34;36.85;;;10.85;;
22332;SDS011;11334;36.986;-121.936;2022-09-09T11:40:44;32.60;;;11.35;;
22332;SDS011;11334;36.986;-121.936;2022-09-09T11:43:12;36.25;;;10.73;;
22332;SDS011;11334;36.986;-121.936;2022-09-09T11:45:53;32.38;;;11.45;;
22332;SDS011;11334;36.986;-121.936;2022-09-09T11:48:34;33.47;;;10.77;;
22332;SDS011;11334;36.986;-121.936;2022-09-09T11:51:09;32.00;;;9.90;;
22332;SDS011;11334;36.986;-121.936;2022-09-09T11:53:51;28.95;;;10.30;;
22332;SDS011;11334;36.986;-121.936;2022-09-09T11:56:42;34.95;;;10.85;;
22332;SDS011;11334;36.986;-121.936;2022-09-09T11:59:20;31.60;;;11.43;;
22332;SDS011;11334;36.986;-121.936;2022-09-09T12:01:50;35.05;;;11.65;;
22332;SDS011;11334;36.986;-121.936;2022-09-09T12:04:34;34.20;;;11.73;;
22332;SDS011;11334;36.986;-121.936;2022-09-09T12:09:50;37.10;;;10.82;;
22332;SDS011;11334;36.986;-121.936;2022-09-09T12:15:16;28.42;;;10.38;;
22332;SDS011;11334;36.986;-121.936;2022-09-09T12:29:14;31.20;;;9.88;;
22332;SDS011;11334;36.986;-121.936;2022-09-09T12:36:52;32.58;;;10.77;;
22332;SDS011;11334;36.986;-121.936;2022-09-09T12:39:32;37.05;;;11.35;;
22332;SDS011;11334;36.986;-121.936;2022-09-09T12:42:02;29.50;;;10.98;;
22332;SDS011;11334;36.986;-121.936;2022-09-09T12:44:29;31.10;;;10.95;;
22332;SDS011;11334;36.986;-121.936;2022-09-09T12:46:58;33.45;;;10.63;;
22332;SDS011;11334;36.986;-121.936;2022-09-09T12:49:29;30.63;;;10.80;;
22332;SDS011;11334;36.986;-121.936;2022-09-09T12:52:13;31.65;;;10.10;;
22332;SDS011;11334;36.986;-121.936;2022-09-09T12:54:49;31.65;;;10.32;;
22332;SDS011;11334;36.986;-121.936;2022-09-09T12:57:19;29.98;;;9.75;;
22332;SDS011;11334;36.986;-121.936;2022-09-09T12:59:48;32.53;;;9.65;;
22332;SDS011;11334;36.986;-121.936;2022-09-09T13:02:18;30.45;;;10.57;;
22332;SDS011;11334;36.986;-121.936;2022-09-09T13:04:50;25.73;;;10.68;;
22332;SDS011;11334;36.986;-121.936;2022-09-09T13:07:20;30.05;;;9.98;;
22332;SDS011;11334;36.986;-121.936;2022-09-09T13:09:47;26.73;;;9.90;;
22332;SDS011;11334;36.986;-121.936;2022-09-09T13:12:16;29.23;;;9.82;;
22332;SDS011;11334;36.986;-121.936;2022-09-09T13:14:48;26.00;;;10.02;;
22332;SDS011;11334;36.986;-121.936;2022-09-09T13:17:19;23.67;;;9.48;;
22332;SDS011;11334;36.986;-121.936;2022-09-09T13:19:48;26.33;;;8.50;;
22332;SDS011;11334;36.986;-121.936;2022-09-09T13:22:29;25.60;;;9.07;;
22332;SDS011;11334;36.986;-121.936;2022-09-09T13:25:01;27.42;;;10.35;;
22332;SDS011;11334;36.986;-121.936;2022-09-09T13:27:32;22.27;;;8.90;;
22332;SDS011;11334;36.986;-121.936;2022-09-09T13:30:25;28.92;;;9.90;;
22332;SDS011;11334;36.986;-121.936;2022-09-09T13:32:59;24.80;;;8.45;;
22332;SDS011;11334;36.986;-121.936;2022-09-09T13:35:27;20.67;;;9.25;;
22332;SDS011;11334;36.986;-121.936;2022-09-09T13:37:54;23.55;;;8.75;;
22332;SDS011;11334;36.986;-121.936;2022-09-09T13:40:21;20.77;;;7.85;;
22332;SDS011;11334;36.986;-121.936;2022-09-09T13:42:52;27.42;;;9.27;;
22332;SDS011;11334;36.986;-121.936;2022-09-09T13:45:22;22.33;;;8.73;;
22332;SDS011;11334;36.986;-121.936;2022-09-09T13:47:52;22.55;;;8.57;;
22332;SDS011;11334;36.986;-121.936;2022-09-09T13:50:21;18.83;;;8.32;;
22332;SDS011;11334;36.986;-121.936;2022-09-09T13:52:50;22.55;;;8.55;;
22332;SDS011;11334;36.986;-121.936;2022-09-09T13:55:22;18.63;;;8.05;;
22332;SDS011;11334;36.986;-121.936;2022-09-09T13:57:52;21.90;;;8.38;;
22332;SDS011;11334;36.986;-121.936;2022-09-09T14:00:24;18.23;;;8.23;;
22332;SDS011;11334;36.986;-121.936;2022-09-09T14:02:50;23.67;;;9.00;;
22332;SDS011;11334;36.986;-121.936;2022-09-09T14:05:17;20.13;;;8.13;;
22332;SDS011;11334;36.986;-121.936;2022-09-09T14:07:44;23.50;;;8.85;;
22332;SDS011;11334;36.986;-121.936;2022-09-09T14:10:11;19.63;;;8.50;;
22332;SDS011;11334;36.986;-121.936;2022-09-09T14:12:38;21.23;;;8.55;;
22332;SDS011;11334;36.986;-121.936;2022-09-09T14:15:05;20.55;;;7.88;;
22332;SDS011;11334;36.986;-121.936;2022-09-09T14:17:32;19.80;;;7.85;;
22332;SDS011;11334;36.986;-121.936;2022-09-09T14:20:00;26.35;;;9.07;;
22332;SDS011;11334;36.986;-121.936;2022-09-09T14:22:29;22.80;;;8.95;;
22332;SDS011;11334;36.986;-121.936;2022-09-09T14:24:55;25.33;;;8.57;;
22332;SDS011;11334;36.986;-121.936;2022-09-09T14:27:22;27.73;;;8.73;;
22332;SDS011;11334;36.986;-121.936;2022-09-09T14:29:51;22.52;;;8.93;;
22332;SDS011;11334;36.986;-121.936;2022-09-09T14:32:17;26.08;;;9.23;;
22332;SDS011;11334;36.986;-121.936;2022-09-09T14:34:44;25.85;;;9.57;;
22332;SDS011;11334;36.986;-121.936;2022-09-09T14:37:10;24.02;;;9.07;;
22332;SDS011;11334;36.986;-121.936;2022-09-09T14:39:36;23.63;;;9.85;;
22332;SDS011;11334;36.986;-121.936;2022-09-09T14:42:03;26.83;;;9.88;;
22332;SDS011;11334;36.986;-121.936;2022-09-09T14:44:30;27.08;;;9.82;;
22332;SDS011;11334;36.986;-121.936;2022-09-09T14:46:57;24.80;;;9.20;;
22332;SDS011;11334;36.986;-121.936;2022-09-09T14:49:23;28.73;;;9.60;;
22332;SDS011;11334;36.986;-121.936;2022-09-09T14:51:50;26.98;;;10.43;;
22332;SDS011;11334;36.986;-121.936;2022-09-09T14:54:16;28.00;;;9.40;;
22332;SDS011;11334;36.986;-121.936;2022-09-09T14:56:42;26.35;;;9.35;;
22332;SDS011;11334;36.986;-121.936;2022-09-09T14:59:08;30.15;;;9.55;;
22332;SDS011;11334;36.986;-121.936;2022-09-09T15:01:34;26.45;;;8.55;;
22332;SDS011;11334;36.986;-121.936;2022-09-09T15:04:02;26.60;;;9.52;;
22332;SDS011;11334;36.986;-121.936;2022-09-09T15:06:30;30.80;;;10.45;;
22332;SDS011;11334;36.986;-121.936;2022-09-09T15:09:02;53.10;;;13.40;;
22332;SDS011;11334;36.986;-121.936;2022-09-09T15:11:31;33.42;;;11.90;;
22332;SDS011;11334;36.986;-121.936;2022-09-09T15:14:03;40.70;;;12.32;;
22332;SDS011;11334;36.986;-121.936;2022-09-09T15:16:30;40.75;;;11.95;;
22332;SDS011;11334;36.986;-121.936;2022-09-09T15:18:59;44.70;;;12.98;;
22332;SDS011;11334;36.986;-121.936;2022-09-09T15:21:28;41.15;;;12.93;;
22332;SDS011;11334;36.986;-121.936;2022-09-09T15:23:59;37.17;;;12.18;;
22332;SDS011;11334;36.986;-121.936;2022-09-09T15:26:26;45.97;;;12.38;;
22332;SDS011;11334;36.986;-121.936;2022-09-09T15:28:53;44.33;;;14.07;;
22332;SDS011;11334;36.986;-121.936;2022-09-09T15:31:20;47.20;;;13.30;;
22332;SDS011;11334;36.986;-121.936;2022-09-09T15:36:31;41.28;;;13.63;;
22332;SDS011;11334;36.986;-121.936;2022-09-09T15:39:02;43.15;;;13.48;;
22332;SDS011;11334;36.986;-121.936;2022-09-09T15:41:32;42.67;;;12.02;;
22332;SDS011;11334;36.986;-121.936;2022-09-09T15:43:59;47.42;;;13.45;;
22332;SDS011;11334;36.986;-121.936;2022-09-09T15:46:27;45.97;;;13.50;;
22332;SDS011;11334;36.986;-121.936;2022-09-09T15:51:41;48.00;;;14.10;;
22332;SDS011;11334;36.986;-121.936;2022-09-09T15:54:10;47.40;;;13.38;;
22332;SDS011;11334;36.986;-121.936;2022-09-09T15:56:38;45.22;;;12.77;;
22332;SDS011;11334;36.986;-121.936;2022-09-09T15:59:05;41.92;;;13.30;;
22332;SDS011;11334;36.986;-121.936;2022-09-09T16:01:32;62.63;;;16.10;;
22332;SDS011;11334;36.986;-121.936;2022-09-09T16:03:59;57.75;;;14.98;;
22332;SDS011;11334;36.986;-121.936;2022-09-09T16:06:25;49.95;;;14.25;;
22332;SDS011;11334;36.986;-121.936;2022-09-09T16:08:54;53.15;;;14.10;;
22332;SDS011;11334;36.986;-121.936;2022-09-09T16:11:22;50.45;;;14.93;;
22332;SDS011;11334;36.986;-121.936;2022-09-09T16:13:52;40.35;;;13.57;;
22332;SDS011;11334;36.986;-121.936;2022-09-09T16:16:20;50.38;;;12.90;;
22332;SDS011;11334;36.986;-121.936;2022-09-09T16:18:50;53.55;;;14.50;;
22332;SDS011;11334;36.986;-121.936;2022-09-09T16:21:19;40.50;;;13.35;;
22332;SDS011;11334;36.986;-121.936;2022-09-09T16:23:49;49.90;;;13.27;;
22332;SDS011;11334;36.986;-121.936;2022-09-09T16:26:16;42.38;;;14.02;;
22332;SDS011;11334;36.986;-121.936;2022-09-09T16:28:43;44.13;;;14.43;;
22332;SDS011;11334;36.986;-121.936;2022-09-09T16:31:13;50.65;;;15.73;;
22332;SDS011;11334;36.986;-121.936;2022-09-09T16:33:44;51.17;;;14.45;;
22332;SDS011;11334;36.986;-121.936;2022-09-09T16:36:12;41.20;;;13.35;;